Maersk Antares — 9VHK7 — position and weather

sailwx.info

Track history (hours):
 
Tides and Currents Weather Stations Pressure Air Temp Water Temp Dewpoint Dewpoint Depression Visibility Wind Speed Wind Dir Waves Ship Positions

Maersk Antares

Last reported at 2018-Jan-11 13:50 UTC. Time now 2018-Jan-19 09:01 UTC.
Position N 34°56' E 140°21'.

Length 338 m; draft 13.7 m.

Type: Ship (hazmat cat A). MMSI: 565661000.

Date/timePositionNaut miles runAvg speedWind from/ knotsBaromVisibWave heightAir tempDewpointWater temp
2018-Jan-11 13:50N 34°56' E 140°21'720.7
2018-Jan-11 13:30N 34°51' E 140°14'1120.7
2018-Jan-11 12:59N 34°46' E 140°03'1021.7
2018-Jan-11 12:30N 34°47' E 139°50'1020.1
2018-Jan-11 12:00N 34°53' E 139°40'918.5
2018-Jan-11 11:30N 35°02' E 139°40'815.6
2018-Jan-11 11:00N 35°09' E 139°45'5 9.6
2018-Jan-11 10:30N 35°13' E 139°47'611.9
2018-Jan-11 10:00N 35°19' E 139°43'611.2
2018-Jan-11 09:30N 35°24' E 139°40'0 0.8
2018-Jan-11 08:58N 35°24' E 139°41'0 0.0
2018-Jan-11 08:28N 35°24' E 139°41'0 0.0
2018-Jan-11 07:58N 35°24' E 139°41'0 0.0
2018-Jan-11 07:28N 35°24' E 139°41'0 0.0
2018-Jan-11 06:58N 35°24' E 139°41'0 0.0
2018-Jan-11 06:25N 35°24' E 139°41'0 0.0
2018-Jan-11 05:55N 35°24' E 139°41'0 0.0
2018-Jan-11 05:25N 35°24' E 139°41'0 0.0
2018-Jan-11 04:58N 35°24' E 139°41'0 0.0
2018-Jan-11 04:28N 35°24' E 139°41'0 0.0
2018-Jan-11 03:58N 35°24' E 139°41'0 0.3
2018-Jan-11 03:31N 35°24' E 139°41'2 3.5
2018-Jan-11 03:01N 35°22' E 139°42'4 7.8
2018-Jan-11 02:30N 35°19' E 139°44'510.9
2018-Jan-11 02:00N 35°14' E 139°47'4 8.9
2018-Jan-11 01:31N 35°10' E 139°47'612.9
2018-Jan-11 01:00N 35°03' E 139°45'917.9
2018-Jan-11 00:31N 34°55' E 139°41'1019.4
2018-Jan-11 00:00N 34°46' E 139°36'1018.6
2018-Jan-10 23:27N 34°37' E 139°30'917.9
2018-Jan-10 22:57N 34°37' E 139°19'919.1
2018-Jan-10 22:30N 34°35' E 139°09'1019.6
2018-Jan-10 22:00N 34°29' E 138°59'1019.5
2018-Jan-10 21:29N 34°24' E 138°49'919.2
2018-Jan-10 21:00N 34°19' E 138°39'1019.6
2018-Jan-10 20:28N 34°14' E 138°28'919.9
2018-Jan-10 20:00N 34°09' E 138°18'1019.8
2018-Jan-10 19:30N 34°04' E 138°09'1319.6
2018-Jan-10 18:51N 33°58' E 137°55'  
2018-Jan-04 09:54N 35°58' E 120°34'815.4
2018-Jan-04 09:24N 36°00' E 120°24'511.0
2018-Jan-04 08:55N 36°02' E 120°18'4 9.0
2018-Jan-04 08:31N 36°01' E 120°14'1 0.4
2018-Jan-04 04:48N 36°00' E 120°12'0 0.0
2018-Jan-04 04:21N 36°00' E 120°12'0 0.0
2018-Jan-04 03:46N 36°00' E 120°12'0 0.0
2018-Jan-04 03:25N 36°00' E 120°12'0 0.0
2018-Jan-04 02:51N 36°00' E 120°12'0 0.0
2018-Jan-04 02:10N 36°00' E 120°12'0 0.0
2018-Jan-04 01:52N 36°00' E 120°12'0 0.0
2018-Jan-04 01:19N 36°00' E 120°12'0 0.0
2018-Jan-04 00:58N 36°00' E 120°12'0 0.0
2018-Jan-04 00:22N 36°00' E 120°12'0 0.0
2018-Jan-03 22:28N 36°00' E 120°12'0 0.0
2018-Jan-03 21:22N 36°00' E 120°12'0 0.0
2018-Jan-03 20:46N 36°00' E 120°12'0 0.0
2018-Jan-03 20:16N 36°00' E 120°12'0 0.0
2018-Jan-03 19:59N 36°00' E 120°12'0 0.0
2018-Jan-03 18:24N 36°00' E 120°12'0 0.0
2018-Jan-03 17:16N 36°00' E 120°12'0 0.0
2018-Jan-03 09:58N 36°00' E 120°12'4 1.2
2018-Jan-03 06:40N 36°02' E 120°17'1212.5
2018-Jan-03 05:44N 35°60' E 120°31'  
Track history (hours):
 
Tides and Currents Weather Stations Pressure Air Temp Water Temp Dewpoint Dewpoint Depression Visibility Wind Speed Wind Dir Waves Ship Positions

Maersk Antares

Last reported at 2018-Jan-11 13:50 UTC. Time now 2018-Jan-19 09:01 UTC.
Position N 34°56' E 140°21'.

Length 338 m; draft 13.7 m.

Type: Ship (hazmat cat A). MMSI: 565661000.

Date/timePositionNaut miles runAvg speedWind from/ knotsBaromVisibWave heightAir tempDewpointWater temp
2018-Jan-11 13:50N 34°56' E 140°21'720.7
2018-Jan-11 13:30N 34°51' E 140°14'1120.7
2018-Jan-11 12:59N 34°46' E 140°03'1021.7
2018-Jan-11 12:30N 34°47' E 139°50'1020.1
2018-Jan-11 12:00N 34°53' E 139°40'918.5
2018-Jan-11 11:30N 35°02' E 139°40'815.6
2018-Jan-11 11:00N 35°09' E 139°45'5 9.6
2018-Jan-11 10:30N 35°13' E 139°47'611.9
2018-Jan-11 10:00N 35°19' E 139°43'611.2
2018-Jan-11 09:30N 35°24' E 139°40'0 0.8
2018-Jan-11 08:58N 35°24' E 139°41'0 0.0
2018-Jan-11 08:28N 35°24' E 139°41'0 0.0
2018-Jan-11 07:58N 35°24' E 139°41'0 0.0
2018-Jan-11 07:28N 35°24' E 139°41'0 0.0
2018-Jan-11 06:58N 35°24' E 139°41'0 0.0
2018-Jan-11 06:25N 35°24' E 139°41'0 0.0
2018-Jan-11 05:55N 35°24' E 139°41'0 0.0
2018-Jan-11 05:25N 35°24' E 139°41'0 0.0
2018-Jan-11 04:58N 35°24' E 139°41'0 0.0
2018-Jan-11 04:28N 35°24' E 139°41'0 0.0
2018-Jan-11 03:58N 35°24' E 139°41'0 0.3
2018-Jan-11 03:31N 35°24' E 139°41'2 3.5
2018-Jan-11 03:01N 35°22' E 139°42'4 7.8
2018-Jan-11 02:30N 35°19' E 139°44'510.9
2018-Jan-11 02:00N 35°14' E 139°47'4 8.9
2018-Jan-11 01:31N 35°10' E 139°47'612.9
2018-Jan-11 01:00N 35°03' E 139°45'917.9
2018-Jan-11 00:31N 34°55' E 139°41'1019.4
2018-Jan-11 00:00N 34°46' E 139°36'1018.6
2018-Jan-10 23:27N 34°37' E 139°30'917.9
2018-Jan-10 22:57N 34°37' E 139°19'919.1
2018-Jan-10 22:30N 34°35' E 139°09'1019.6
2018-Jan-10 22:00N 34°29' E 138°59'1019.5
2018-Jan-10 21:29N 34°24' E 138°49'919.2
2018-Jan-10 21:00N 34°19' E 138°39'1019.6
2018-Jan-10 20:28N 34°14' E 138°28'919.9
2018-Jan-10 20:00N 34°09' E 138°18'1019.8
2018-Jan-10 19:30N 34°04' E 138°09'1319.6
2018-Jan-10 18:51N 33°58' E 137°55'  
2018-Jan-04 09:54N 35°58' E 120°34'815.4
2018-Jan-04 09:24N 36°00' E 120°24'511.0
2018-Jan-04 08:55N 36°02' E 120°18'4 9.0
2018-Jan-04 08:31N 36°01' E 120°14'1 0.4
2018-Jan-04 04:48N 36°00' E 120°12'0 0.0
2018-Jan-04 04:21N 36°00' E 120°12'0 0.0
2018-Jan-04 03:46N 36°00' E 120°12'0 0.0
2018-Jan-04 03:25N 36°00' E 120°12'0 0.0
2018-Jan-04 02:51N 36°00' E 120°12'0 0.0
2018-Jan-04 02:10N 36°00' E 120°12'0 0.0
2018-Jan-04 01:52N 36°00' E 120°12'0 0.0
2018-Jan-04 01:19N 36°00' E 120°12'0 0.0
2018-Jan-04 00:58N 36°00' E 120°12'0 0.0
2018-Jan-04 00:22N 36°00' E 120°12'0 0.0
2018-Jan-03 22:28N 36°00' E 120°12'0 0.0
2018-Jan-03 21:22N 36°00' E 120°12'0 0.0
2018-Jan-03 20:46N 36°00' E 120°12'0 0.0
2018-Jan-03 20:16N 36°00' E 120°12'0 0.0
2018-Jan-03 19:59N 36°00' E 120°12'0 0.0
2018-Jan-03 18:24N 36°00' E 120°12'0 0.0
2018-Jan-03 17:16N 36°00' E 120°12'0 0.0
2018-Jan-03 09:58N 36°00' E 120°12'4 1.2
2018-Jan-03 06:40N 36°02' E 120°17'1212.5
2018-Jan-03 05:44N 35°60' E 120°31'  

Dump ship's entire track history